createdAt,value
2023-01-22T00:04:05.880Z,14.05
2023-01-22T00:09:06.666Z,14.75
2023-01-22T00:14:07.686Z,14.50
2023-01-22T00:19:09.153Z,15.57
2023-01-22T00:24:10.335Z,14.80
2023-01-22T00:29:12.041Z,15.18
2023-01-22T00:34:13.449Z,15.60
2023-01-22T00:39:14.210Z,15.48
2023-01-22T00:44:15.472Z,14.35
2023-01-22T00:49:16.203Z,15.85
2023-01-22T00:54:19.208Z,17.17
2023-01-22T00:59:20.063Z,15.45
2023-01-22T01:04:21.084Z,15.32
2023-01-22T01:09:22.893Z,15.57
2023-01-22T01:14:23.802Z,16.00
2023-01-22T01:19:24.791Z,14.90
2023-01-22T01:24:26.006Z,14.35
2023-01-22T01:29:26.852Z,14.30
2023-01-22T01:34:27.626Z,14.90
2023-01-22T01:39:28.378Z,15.02
2023-01-22T01:44:31.179Z,14.38
2023-01-22T01:54:53.883Z,14.65
2023-01-22T01:59:57.021Z,15.75
2023-01-22T02:09:58.926Z,15.32
2023-01-22T02:15:03.004Z,15.13
2023-01-22T02:20:04.539Z,15.65
2023-01-22T02:25:06.375Z,15.85
2023-01-22T02:30:08.032Z,15.10
2023-01-22T02:35:09.063Z,16.12
2023-01-22T02:40:10.573Z,13.80
2023-01-22T02:45:11.724Z,15.80
2023-01-22T02:50:12.729Z,15.95
2023-01-22T02:55:14.042Z,16.55
2023-01-22T03:00:15.249Z,15.90
2023-01-22T03:05:16.326Z,15.98
2023-01-22T03:10:19.511Z,15.38
2023-01-22T03:15:39.655Z,15.68
2023-01-22T03:20:59.432Z,14.95
2023-01-22T03:26:00.333Z,15.20
2023-01-22T03:31:01.503Z,14.95
2023-01-22T03:36:08.050Z,16.08
2023-01-22T03:41:14.990Z,14.43
2023-01-22T03:46:19.160Z,14.35
2023-01-22T03:51:23.454Z,14.40
2023-01-22T03:56:25.510Z,14.25
2023-01-22T04:01:28.735Z,13.68
2023-01-22T04:06:29.864Z,14.73
2023-01-22T04:11:32.023Z,14.77
2023-01-22T04:16:32.914Z,12.68
2023-01-22T04:21:41.988Z,14.43
2023-01-22T04:26:45.468Z,12.85
2023-01-22T04:37:13.839Z,13.98
2023-01-22T04:42:14.681Z,13.68
2023-01-22T04:47:16.188Z,13.55
2023-01-22T04:52:17.630Z,12.37
2023-01-22T04:57:18.813Z,13.27
2023-01-22T05:02:20.841Z,13.32
2023-01-22T05:07:22.207Z,13.25
2023-01-22T05:12:23.238Z,12.80
2023-01-22T05:17:26.454Z,12.40
2023-01-22T05:22:27.285Z,12.20
2023-01-22T05:27:28.735Z,12.77
2023-01-22T05:32:36.281Z,13.32
2023-01-22T05:37:37.544Z,13.23
2023-01-22T05:42:39.287Z,12.37
2023-01-22T05:52:53.360Z,10.32
2023-01-22T05:57:55.577Z,11.38
2023-01-22T06:02:58.850Z,12.50
2023-01-22T06:08:00.068Z,11.75
2023-01-22T06:13:04.222Z,11.85
2023-01-22T06:18:05.620Z,11.98
2023-01-22T06:23:07.167Z,11.93
2023-01-22T06:28:08.348Z,10.48
2023-01-22T06:33:09.710Z,11.07
2023-01-22T06:38:10.506Z,10.68
2023-01-22T06:43:11.788Z,10.38
2023-01-22T06:48:13.441Z,10.35
2023-01-22T06:53:14.342Z,10.75
2023-01-22T06:58:15.560Z,9.63
2023-01-22T07:03:16.493Z,10.73
2023-01-22T07:08:17.211Z,9.60
2023-01-22T07:13:18.339Z,10.32
2023-01-22T07:18:21.126Z,9.85
2023-01-22T07:23:21.981Z,10.02
2023-01-22T07:28:22.892Z,9.95
2023-01-22T07:33:24.487Z,10.57
2023-01-22T07:38:28.918Z,10.18
2023-01-22T07:43:31.436Z,10.35
2023-01-22T07:48:33.870Z,10.02
2023-01-22T07:53:34.623Z,9.48
2023-01-22T07:58:35.389Z,11.05
2023-01-22T08:03:37.833Z,9.70
2023-01-22T08:08:38.579Z,9.77
2023-01-22T08:13:39.486Z,10.07
2023-01-22T08:18:40.202Z,10.30
2023-01-22T08:23:41.000Z,9.82
2023-01-22T08:28:41.764Z,9.77
2023-01-22T08:33:43.000Z,10.35
2023-01-22T08:38:43.798Z,10.38
2023-01-22T08:43:44.673Z,8.95
2023-01-22T08:48:46.588Z,9.75
2023-01-22T08:53:47.840Z,9.35
2023-01-22T08:58:50.080Z,9.48
2023-01-22T09:03:50.891Z,9.97
2023-01-22T09:08:52.547Z,8.52
2023-01-22T09:13:55.464Z,8.32
2023-01-22T09:18:56.210Z,9.35
2023-01-22T09:23:57.016Z,8.70
2023-01-22T09:29:00.004Z,8.75
2023-01-22T09:34:03.218Z,8.05
2023-01-22T09:39:03.979Z,8.45
2023-01-22T09:44:17.968Z,8.85
2023-01-22T09:49:22.830Z,8.93
2023-01-22T09:54:24.237Z,8.77
2023-01-22T09:59:38.669Z,9.27
2023-01-22T10:04:44.491Z,9.13
2023-01-22T10:09:52.932Z,8.90
2023-01-22T10:14:54.594Z,9.27
2023-01-22T10:19:59.796Z,8.80
2023-01-22T10:25:01.937Z,9.82
2023-01-22T10:30:21.960Z,10.00
2023-01-22T10:35:23.808Z,10.05
2023-01-22T10:40:40.139Z,9.80
2023-01-22T10:45:55.567Z,9.70
2023-01-22T10:51:14.929Z,9.95
2023-01-22T10:56:33.151Z,10.00
2023-01-22T11:01:36.314Z,9.70
2023-01-22T11:06:43.868Z,9.50
2023-01-22T11:11:52.513Z,9.73
2023-01-22T11:16:58.193Z,9.02
2023-01-22T11:21:59.849Z,8.95
2023-01-22T11:34:06.604Z,8.95
2023-01-22T11:39:39.625Z,9.10
2023-01-22T11:45:25.325Z,9.05
2023-01-22T11:50:38.590Z,10.63
2023-01-22T12:01:35.603Z,9.70
2023-01-22T12:07:13.637Z,10.27
2023-01-22T12:12:33.782Z,9.93
2023-01-22T12:18:10.348Z,11.30
2023-01-22T12:23:18.476Z,11.20
2023-01-22T12:29:44.419Z,10.98
2023-01-22T12:34:54.373Z,11.38
2023-01-22T12:45:19.256Z,10.35
2023-01-22T12:50:22.937Z,10.75
2023-01-22T12:55:37.386Z,11.15
2023-01-22T13:00:39.337Z,10.85
2023-01-22T13:05:44.892Z,11.35
2023-01-22T13:11:09.855Z,10.20
2023-01-22T13:16:20.001Z,11.12
2023-01-22T13:21:30.760Z,10.80
2023-01-22T13:26:37.224Z,11.52
2023-01-22T13:31:38.103Z,12.57
2023-01-22T13:36:44.653Z,11.23
2023-01-22T13:41:50.274Z,10.38
2023-01-22T13:46:52.247Z,11.52
2023-01-22T13:51:56.933Z,14.53
2023-01-22T13:56:57.736Z,14.07
2023-01-22T14:01:58.798Z,12.77
2023-01-22T14:07:00.096Z,12.02
2023-01-22T14:12:19.662Z,11.95
2023-01-22T14:17:35.575Z,10.88
2023-01-22T14:22:36.522Z,11.05
2023-01-22T14:27:46.399Z,11.55
2023-01-22T14:32:47.249Z,11.85
2023-01-22T14:37:48.215Z,11.65
2023-01-22T14:42:49.313Z,10.77
2023-01-22T14:47:51.739Z,11.05
2023-01-22T14:52:52.772Z,11.80
2023-01-22T14:57:54.014Z,11.10
2023-01-22T15:02:55.629Z,23.17
2023-01-22T15:07:56.407Z,11.18
2023-01-22T15:12:57.267Z,10.38
2023-01-22T15:17:58.003Z,10.90
2023-01-22T15:22:59.052Z,9.77
2023-01-22T15:28:00.018Z,10.20
2023-01-22T15:33:01.250Z,10.48
2023-01-22T15:38:04.572Z,10.00
2023-01-22T15:43:05.361Z,9.50
2023-01-22T15:48:07.673Z,10.95
2023-01-22T15:53:08.626Z,10.80
2023-01-22T15:58:09.387Z,10.70
2023-01-22T16:03:11.315Z,9.32
2023-01-22T16:08:12.054Z,10.38
2023-01-22T16:13:12.853Z,9.60
2023-01-22T16:18:13.577Z,9.52
2023-01-22T16:23:14.654Z,9.85
2023-01-22T16:28:15.380Z,9.50
2023-01-22T16:33:21.207Z,10.00
2023-01-22T16:38:21.908Z,9.63
2023-01-22T16:43:22.695Z,12.43
2023-01-22T16:48:23.477Z,12.73
2023-01-22T16:53:24.597Z,15.35
2023-01-22T16:58:25.319Z,9.88
2023-01-22T17:03:26.117Z,10.25
2023-01-22T17:08:27.019Z,11.80
2023-01-22T17:13:28.906Z,14.55
2023-01-22T17:18:29.778Z,10.82
2023-01-22T17:23:31.099Z,10.52
2023-01-22T17:28:34.619Z,10.68
2023-01-22T17:33:35.854Z,10.38
2023-01-22T17:38:38.746Z,10.10
2023-01-22T17:48:41.625Z,9.30
2023-01-22T17:53:44.638Z,8.80
2023-01-22T17:58:49.475Z,8.75
2023-01-22T18:03:50.951Z,8.93
2023-01-22T18:08:51.792Z,8.88
2023-01-22T18:13:57.128Z,9.45
2023-01-22T18:19:00.925Z,9.88
2023-01-22T18:24:03.172Z,9.90
2023-01-22T18:29:05.223Z,10.03
2023-01-22T18:34:07.238Z,9.50
2023-01-22T18:39:11.996Z,10.45
2023-01-22T18:44:15.328Z,10.32
2023-01-22T18:49:18.118Z,8.88
2023-01-22T18:54:18.948Z,9.65
2023-01-22T18:59:19.775Z,9.20
2023-01-22T19:04:21.019Z,10.52
2023-01-22T19:09:22.044Z,10.57
2023-01-22T19:14:23.072Z,10.93
2023-01-22T19:19:23.954Z,10.57
2023-01-22T19:24:27.526Z,10.38
2023-01-22T19:29:28.286Z,10.85
2023-01-22T19:34:29.820Z,10.65
2023-01-22T19:39:30.688Z,10.38
2023-01-22T19:44:33.012Z,10.48
2023-01-22T19:49:34.229Z,14.83
2023-01-22T19:54:39.726Z,12.37
2023-01-22T19:59:41.693Z,11.12
2023-01-22T20:04:42.468Z,11.07
2023-01-22T20:09:43.995Z,10.60
2023-01-22T20:14:44.746Z,11.38
2023-01-22T20:19:45.558Z,11.43
2023-01-22T20:24:46.402Z,11.50
2023-01-22T20:29:47.203Z,11.07
2023-01-22T20:34:48.099Z,11.25
2023-01-22T20:39:48.926Z,11.63
2023-01-22T20:44:50.022Z,11.18
2023-01-22T20:49:50.815Z,10.85
2023-01-22T20:55:01.473Z,11.27
2023-01-22T21:00:04.714Z,11.07
2023-01-22T21:05:05.938Z,10.85
2023-01-22T21:10:08.151Z,11.85
2023-01-22T21:15:09.365Z,10.63
2023-01-22T21:20:11.330Z,10.55
2023-01-22T21:25:12.137Z,10.55
2023-01-22T21:30:13.231Z,10.95
2023-01-22T21:35:13.981Z,11.15
2023-01-22T21:40:18.523Z,10.75
2023-01-22T21:45:38.187Z,12.02
2023-01-22T21:50:40.446Z,11.10
2023-01-22T21:55:49.679Z,10.90
2023-01-22T22:00:50.673Z,11.23
2023-01-22T22:05:56.088Z,10.20
2023-01-22T22:10:56.865Z,10.07
2023-01-22T22:16:01.556Z,8.77
2023-01-22T22:21:05.406Z,9.68
2023-01-22T22:26:08.207Z,9.77
2023-01-22T22:31:12.509Z,10.00
2023-01-22T22:36:15.220Z,10.40
2023-01-22T22:41:22.031Z,9.82
2023-01-22T22:46:25.837Z,10.45
2023-01-22T22:51:32.406Z,9.13
2023-01-22T22:56:33.999Z,9.20
2023-01-22T23:01:36.854Z,9.50
2023-01-22T23:06:37.849Z,9.07
2023-01-22T23:11:45.729Z,8.18
2023-01-22T23:16:46.943Z,7.07
2023-01-22T23:21:50.173Z,7.43
2023-01-22T23:26:51.503Z,7.85
2023-01-22T23:31:52.760Z,7.43
2023-01-22T23:36:53.629Z,7.45
2023-01-22T23:41:54.397Z,7.60
2023-01-22T23:46:55.135Z,7.07
2023-01-22T23:51:55.875Z,7.30
2023-01-22T23:56:56.692Z,7.93
